createdAt,value
2022-08-26T00:02:08.275Z,78.52
2022-08-26T00:04:38.179Z,78.65
2022-08-26T00:07:07.648Z,78.92
2022-08-26T00:09:40.190Z,78.80
2022-08-26T00:12:12.398Z,78.83
2022-08-26T00:14:43.773Z,78.41
2022-08-26T00:17:13.031Z,78.55
2022-08-26T00:19:42.431Z,78.72
2022-08-26T00:22:12.108Z,78.06
2022-08-26T00:24:41.346Z,78.11
2022-08-26T00:27:17.452Z,78.77
2022-08-26T00:29:48.072Z,78.11
2022-08-26T00:32:17.490Z,79.11
2022-08-26T00:34:47.060Z,78.59
2022-08-26T00:37:17.065Z,78.46
2022-08-26T00:39:46.780Z,78.61
2022-08-26T00:42:15.977Z,79.38
2022-08-26T00:44:46.967Z,79.21
2022-08-26T00:47:23.766Z,79.50
2022-08-26T00:49:54.250Z,79.73
2022-08-26T00:52:25.075Z,81.29
2022-08-26T00:55:01.420Z,80.48
2022-08-26T00:57:34.187Z,81.37
2022-08-26T01:00:11.020Z,80.47
2022-08-26T01:02:40.875Z,79.87
2022-08-26T01:05:16.971Z,80.48
2022-08-26T01:07:46.293Z,80.62
2022-08-26T01:10:18.859Z,80.79
2022-08-26T01:12:52.057Z,80.47
2022-08-26T01:15:26.115Z,80.24
2022-08-26T01:17:55.551Z,80.02
2022-08-26T01:20:32.875Z,79.97
2022-08-26T01:23:06.713Z,79.81
2022-08-26T01:25:43.143Z,80.31
2022-08-26T01:28:16.996Z,79.92
2022-08-26T01:30:48.218Z,79.62
2022-08-26T01:33:23.005Z,79.28
2022-08-26T01:35:52.568Z,79.46
2022-08-26T01:38:24.137Z,79.81
2022-08-26T01:40:53.652Z,80.03
2022-08-26T01:43:28.375Z,80.46
2022-08-26T01:45:57.824Z,80.39
2022-08-26T01:48:29.777Z,79.98
2022-08-26T01:51:00.393Z,79.54
2022-08-26T01:53:31.542Z,79.68
2022-08-26T01:56:03.594Z,79.46
2022-08-26T01:58:37.051Z,80.05
2022-08-26T02:01:08.251Z,79.65
2022-08-26T02:03:51.521Z,79.82
2022-08-26T02:06:21.397Z,80.21
2022-08-26T02:08:56.504Z,79.53
2022-08-26T02:11:25.802Z,79.51
2022-08-26T02:14:01.733Z,80.24
2022-08-26T02:16:37.791Z,79.48
2022-08-26T02:19:17.323Z,79.83
2022-08-26T02:21:51.320Z,79.57
2022-08-26T02:24:27.370Z,79.65
2022-08-26T02:26:58.528Z,80.12
2022-08-26T02:29:34.566Z,79.65
2022-08-26T02:32:04.209Z,80.06
2022-08-26T02:34:35.715Z,80.32
2022-08-26T02:37:10.024Z,80.41
2022-08-26T02:39:43.681Z,79.82
2022-08-26T02:42:13.191Z,79.90
2022-08-26T02:44:42.928Z,79.29
2022-08-26T02:47:15.894Z,80.31
2022-08-26T02:49:47.418Z,80.07
2022-08-26T02:52:17.288Z,79.30
2022-08-26T02:54:49.604Z,80.08
2022-08-26T02:57:19.661Z,79.82
2022-08-26T02:59:51.749Z,79.49
2022-08-26T03:02:21.546Z,79.61
2022-08-26T03:04:57.388Z,79.10
2022-08-26T03:07:27.713Z,79.32
2022-08-26T03:09:58.432Z,79.52
2022-08-26T03:16:54.514Z,79.50
2022-08-26T03:19:25.167Z,79.22
2022-08-26T03:21:57.940Z,79.88
2022-08-26T03:24:27.792Z,80.01
2022-08-26T03:26:58.610Z,79.98
2022-08-26T03:29:45.181Z,80.28
2022-08-26T03:32:18.999Z,80.77
2022-08-26T03:34:48.226Z,81.58
2022-08-26T03:37:17.300Z,81.54
2022-08-26T03:39:47.721Z,82.08
2022-08-26T03:42:21.497Z,81.32
2022-08-26T03:44:51.628Z,80.98
2022-08-26T03:47:20.930Z,80.17
2022-08-26T03:49:49.883Z,80.72
2022-08-26T03:52:21.274Z,80.93
2022-08-26T03:54:50.639Z,80.48
2022-08-26T03:57:21.077Z,81.63
2022-08-26T03:59:51.682Z,81.32
2022-08-26T04:02:21.006Z,81.58
2022-08-26T04:04:50.039Z,81.17
2022-08-26T04:07:19.361Z,81.32
2022-08-26T04:09:48.730Z,81.15
2022-08-26T04:12:17.897Z,81.15
2022-08-26T04:14:48.543Z,80.73
2022-08-26T04:17:17.654Z,81.18
2022-08-26T04:19:46.558Z,81.37
2022-08-26T04:22:16.021Z,81.70
2022-08-26T04:24:53.322Z,80.79
2022-08-26T04:27:22.579Z,81.18
2022-08-26T04:29:55.283Z,81.09
2022-08-26T04:32:24.795Z,80.94
2022-08-26T04:34:54.025Z,80.79
2022-08-26T04:37:23.091Z,80.21
2022-08-26T04:39:53.859Z,79.88
2022-08-26T04:42:26.075Z,81.26
2022-08-26T04:44:57.142Z,81.20
2022-08-26T04:47:31.706Z,80.54
2022-08-26T04:50:01.931Z,79.47
2022-08-26T04:52:34.292Z,79.73
2022-08-26T04:55:04.083Z,79.68
2022-08-26T04:57:35.924Z,78.81
2022-08-26T05:00:10.379Z,79.14
2022-08-26T05:02:40.939Z,79.28
2022-08-26T05:05:12.323Z,78.79
2022-08-26T05:07:42.121Z,78.73
2022-08-26T05:10:11.430Z,78.28
2022-08-26T05:12:40.772Z,78.00
2022-08-26T05:15:15.180Z,78.02
2022-08-26T05:17:45.707Z,77.05
2022-08-26T05:20:14.739Z,77.31
2022-08-26T05:22:44.424Z,76.89
2022-08-26T05:25:14.961Z,77.09
2022-08-26T05:27:44.599Z,77.42
2022-08-26T05:30:15.694Z,77.26
2022-08-26T05:32:45.087Z,77.77
2022-08-26T05:35:14.476Z,76.34
2022-08-26T05:37:45.195Z,75.75
2022-08-26T05:40:14.961Z,75.37
2022-08-26T05:42:47.592Z,76.20
2022-08-26T05:45:18.556Z,75.51
2022-08-26T05:47:48.724Z,75.33
2022-08-26T05:50:22.062Z,75.80
2022-08-26T05:52:52.983Z,76.22
2022-08-26T05:55:22.689Z,74.82
2022-08-26T05:57:52.002Z,74.34
2022-08-26T06:00:22.895Z,75.24
2022-08-26T06:02:53.117Z,74.58
2022-08-26T06:05:23.689Z,73.75
2022-08-26T06:08:10.289Z,73.86
2022-08-26T06:10:49.100Z,73.62
2022-08-26T06:13:21.586Z,75.46
2022-08-26T06:15:53.894Z,75.64
2022-08-26T06:18:27.406Z,74.44
2022-08-26T06:20:59.679Z,75.02
2022-08-26T06:23:48.780Z,73.43
2022-08-26T06:26:21.530Z,73.87
2022-08-26T06:28:54.115Z,72.51
2022-08-26T06:31:25.689Z,71.65
2022-08-26T06:33:55.608Z,71.78
2022-08-26T06:36:27.371Z,73.19
2022-08-26T06:39:00.883Z,73.18
2022-08-26T06:41:31.972Z,72.42
2022-08-26T06:44:01.827Z,72.53
2022-08-26T06:46:32.864Z,72.70
2022-08-26T06:49:02.485Z,73.05
2022-08-26T06:51:35.026Z,73.33
2022-08-26T06:54:05.769Z,72.84
2022-08-26T06:56:38.156Z,72.48
2022-08-26T06:59:08.321Z,71.98
2022-08-26T07:01:44.820Z,71.35
2022-08-26T07:04:21.986Z,71.43
2022-08-26T07:06:53.908Z,71.07
2022-08-26T07:09:25.605Z,71.57
2022-08-26T07:11:56.409Z,69.40
2022-08-26T07:14:26.395Z,69.59
2022-08-26T07:16:57.344Z,68.49
2022-08-26T07:19:29.825Z,69.36
2022-08-26T07:22:03.510Z,68.63
2022-08-26T07:24:35.227Z,70.73
2022-08-26T07:27:07.005Z,70.64
2022-08-26T07:29:40.498Z,69.01
2022-08-26T07:32:13.248Z,69.69
2022-08-26T07:34:43.430Z,68.77
2022-08-26T07:37:12.733Z,67.67
2022-08-26T07:39:43.216Z,69.12
2022-08-26T07:42:14.457Z,67.21
2022-08-26T07:44:44.556Z,67.22
2022-08-26T07:47:25.816Z,68.61
2022-08-26T07:49:57.645Z,64.87
2022-08-26T07:52:29.220Z,65.46
2022-08-26T07:55:00.264Z,64.96
2022-08-26T07:57:30.692Z,66.04
2022-08-26T08:00:00.584Z,66.20
2022-08-26T08:02:31.381Z,65.17
2022-08-26T08:05:00.834Z,68.30
2022-08-26T08:07:45.092Z,66.53
2022-08-26T08:10:17.301Z,63.30
2022-08-26T08:12:46.964Z,64.83
2022-08-26T08:15:18.802Z,66.52
2022-08-26T08:17:51.687Z,66.46
2022-08-26T08:20:22.134Z,64.87
2022-08-26T08:22:53.245Z,64.66
2022-08-26T08:25:23.928Z,64.08
2022-08-26T08:27:53.102Z,63.67
2022-08-26T08:30:24.495Z,64.65
2022-08-26T08:32:55.328Z,64.18
2022-08-26T08:35:26.464Z,62.72
2022-08-26T08:37:56.587Z,62.21
2022-08-26T08:40:27.815Z,63.22
2022-08-26T08:43:03.897Z,62.77
2022-08-26T08:45:36.988Z,62.82
2022-08-26T08:48:14.806Z,61.20
2022-08-26T08:50:46.991Z,61.94
2022-08-26T08:53:22.715Z,60.97
2022-08-26T08:56:05.683Z,61.69
2022-08-26T08:58:50.983Z,59.94
2022-08-26T09:01:29.494Z,58.84
2022-08-26T09:04:21.011Z,59.06
2022-08-26T09:06:53.920Z,59.80
2022-08-26T09:09:30.482Z,57.81
2022-08-26T09:12:01.743Z,57.23
2022-08-26T09:14:32.457Z,55.63
2022-08-26T09:17:09.972Z,59.07
2022-08-26T09:19:48.072Z,58.18
2022-08-26T09:22:31.141Z,57.97
2022-08-26T09:25:01.613Z,57.88
2022-08-26T09:27:43.240Z,54.90
2022-08-26T09:30:15.627Z,53.82
2022-08-26T09:32:57.673Z,50.80
2022-08-26T09:35:32.507Z,51.98
2022-08-26T09:38:01.970Z,48.20
2022-08-26T09:40:34.672Z,51.03
2022-08-26T09:43:22.136Z,50.94
2022-08-26T09:45:59.112Z,49.09
2022-08-26T09:48:32.352Z,48.07
2022-08-26T09:51:26.356Z,48.49
2022-08-26T09:53:58.392Z,48.25
2022-08-26T09:56:32.104Z,46.39
2022-08-26T09:59:03.153Z,43.88
2022-08-26T10:01:38.174Z,43.79
2022-08-26T10:04:11.284Z,45.56
2022-08-26T10:06:44.798Z,42.12
2022-08-26T10:09:17.237Z,42.64
2022-08-26T10:11:53.805Z,40.54
2022-08-26T10:14:28.976Z,40.27
2022-08-26T10:17:06.933Z,37.40
2022-08-26T10:19:53.595Z,39.47
2022-08-26T10:22:34.519Z,36.00
2022-08-26T10:25:08.023Z,32.92
2022-08-26T10:27:53.274Z,31.29
2022-08-26T10:30:25.330Z,30.84
2022-08-26T10:32:59.271Z,30.00
2022-08-26T10:35:30.106Z,31.75
2022-08-26T10:38:06.106Z,30.08
2022-08-26T10:40:46.715Z,26.45
2022-08-26T10:43:23.810Z,27.88
2022-08-26T10:45:58.270Z,28.63
2022-08-26T10:48:36.128Z,28.16
2022-08-26T10:51:06.359Z,31.34
2022-08-26T10:53:51.602Z,29.58
2022-08-26T10:56:37.472Z,24.08
2022-08-26T10:59:20.279Z,22.51
2022-08-26T11:01:56.195Z,25.22
2022-08-26T11:04:48.193Z,19.41
2022-08-26T11:07:39.762Z,20.22
2022-08-26T11:10:33.514Z,19.69
2022-08-26T11:13:04.653Z,20.45
2022-08-26T11:16:02.540Z,19.42
2022-08-26T11:18:44.119Z,19.73
2022-08-26T11:21:52.840Z,20.27
2022-08-26T11:25:11.541Z,21.10
2022-08-26T11:27:59.846Z,23.56
2022-08-26T11:30:56.991Z,23.98
2022-08-26T11:33:59.627Z,21.87
2022-08-26T11:36:53.174Z,20.07
2022-08-26T11:39:28.685Z,17.42
2022-08-26T11:42:01.263Z,18.60
2022-08-26T11:44:41.027Z,20.28
2022-08-26T11:47:28.807Z,21.51
2022-08-26T11:50:13.337Z,21.97
2022-08-26T11:52:42.601Z,20.52
2022-08-26T11:55:19.625Z,18.77
2022-08-26T11:57:55.659Z,21.08
2022-08-26T12:00:33.782Z,18.60
2022-08-26T12:03:08.889Z,17.88
2022-08-26T12:05:44.519Z,17.66
2022-08-26T12:08:18.329Z,18.93
2022-08-26T12:10:48.461Z,17.75
2022-08-26T12:13:23.524Z,17.19
2022-08-26T12:15:59.980Z,16.40
2022-08-26T12:18:36.634Z,15.75
2022-08-26T12:21:16.179Z,15.66
2022-08-26T12:23:48.045Z,15.71
2022-08-26T12:26:26.014Z,17.30
2022-08-26T12:28:59.208Z,16.51
2022-08-26T12:31:32.775Z,16.67
2022-08-26T12:34:05.006Z,16.55
2022-08-26T12:36:39.225Z,15.34
2022-08-26T12:39:10.938Z,17.05
2022-08-26T12:41:43.670Z,17.72
2022-08-26T12:44:53.826Z,16.60
2022-08-26T12:47:42.150Z,17.12
2022-08-26T12:50:20.390Z,17.04
2022-08-26T12:52:58.991Z,15.84
2022-08-26T12:55:37.507Z,15.73
2022-08-26T12:58:22.659Z,14.09
2022-08-26T13:00:52.748Z,13.94
2022-08-26T13:03:47.751Z,14.49
2022-08-26T13:06:30.149Z,15.69
2022-08-26T13:09:01.441Z,16.27
2022-08-26T13:11:33.766Z,16.31
2022-08-26T13:14:06.879Z,16.30
2022-08-26T13:16:37.526Z,15.76
2022-08-26T13:19:11.132Z,13.98
2022-08-26T13:21:46.300Z,15.60
2022-08-26T13:24:19.169Z,15.39
2022-08-26T13:26:50.121Z,15.72
2022-08-26T13:29:21.507Z,15.99
2022-08-26T13:31:51.295Z,15.72
2022-08-26T13:34:24.074Z,15.09
2022-08-26T13:36:56.466Z,17.01
2022-08-26T13:39:26.988Z,15.45
2022-08-26T13:41:56.977Z,14.99
2022-08-26T13:44:26.033Z,15.00
2022-08-26T13:46:55.105Z,15.72
2022-08-26T13:49:26.002Z,15.08
2022-08-26T13:51:55.130Z,16.20
2022-08-26T13:54:24.401Z,17.10
2022-08-26T13:56:53.700Z,17.50
2022-08-26T13:59:22.826Z,17.56
2022-08-26T14:01:51.903Z,17.35
2022-08-26T14:04:22.466Z,16.29
2022-08-26T14:06:58.097Z,15.91
2022-08-26T14:09:27.578Z,16.45
2022-08-26T14:11:58.114Z,17.03
2022-08-26T14:14:28.422Z,16.33
2022-08-26T14:17:00.406Z,17.27
2022-08-26T14:19:31.222Z,16.66
2022-08-26T14:22:03.172Z,16.67
2022-08-26T14:24:33.005Z,14.49
2022-08-26T14:27:02.204Z,18.22
2022-08-26T14:29:31.604Z,17.47
2022-08-26T14:32:07.127Z,16.32
2022-08-26T14:34:36.544Z,16.08
2022-08-26T14:37:09.172Z,18.60
2022-08-26T14:39:40.209Z,14.92
2022-08-26T14:42:10.510Z,15.55
2022-08-26T14:44:45.826Z,16.63
2022-08-26T14:47:18.258Z,15.55
2022-08-26T14:49:47.508Z,17.90
2022-08-26T14:52:18.719Z,17.55
2022-08-26T14:54:47.024Z,16.09
2022-08-26T14:57:22.317Z,15.69
2022-08-26T14:59:51.622Z,16.57
2022-08-26T15:02:33.320Z,16.95
2022-08-26T15:05:04.489Z,18.93
2022-08-26T15:07:36.657Z,19.93
2022-08-26T15:10:07.903Z,21.23
2022-08-26T15:12:40.344Z,23.08
2022-08-26T15:15:11.565Z,21.56
2022-08-26T15:17:42.053Z,22.25
2022-08-26T15:20:12.451Z,20.44
2022-08-26T15:22:45.475Z,22.14
2022-08-26T15:25:15.294Z,21.20
2022-08-26T15:27:44.479Z,20.79
2022-08-26T15:30:16.696Z,22.71
2022-08-26T15:32:45.963Z,22.13
2022-08-26T15:35:15.294Z,22.58
2022-08-26T15:37:45.934Z,22.86
2022-08-26T15:40:15.355Z,21.88
2022-08-26T15:42:44.431Z,21.29
2022-08-26T15:45:25.838Z,22.60
2022-08-26T15:48:01.182Z,23.99
2022-08-26T15:50:31.943Z,24.08
2022-08-26T15:53:02.915Z,25.18
2022-08-26T15:55:32.251Z,25.24
2022-08-26T15:58:01.451Z,25.91
2022-08-26T16:00:31.360Z,25.53
2022-08-26T16:03:00.753Z,25.76
2022-08-26T16:05:29.926Z,27.26
2022-08-26T16:07:59.264Z,27.25
2022-08-26T16:10:31.143Z,27.63
2022-08-26T16:13:00.569Z,29.59
2022-08-26T16:15:30.049Z,28.75
2022-08-26T16:18:02.088Z,28.75
2022-08-26T16:20:33.978Z,29.24
2022-08-26T16:23:04.348Z,29.92
2022-08-26T16:25:35.372Z,30.19
2022-08-26T16:28:09.848Z,31.72
2022-08-26T16:30:41.777Z,31.50
2022-08-26T16:33:11.980Z,32.81
2022-08-26T16:38:21.199Z,34.45
2022-08-26T16:40:54.133Z,33.65
2022-08-26T16:43:23.379Z,34.39
2022-08-26T16:45:52.349Z,34.01
2022-08-26T16:48:22.057Z,35.43
2022-08-26T16:50:51.398Z,38.89
2022-08-26T16:53:20.546Z,38.08
2022-08-26T16:55:50.965Z,39.24
2022-08-26T16:58:22.376Z,39.19
2022-08-26T17:00:51.967Z,39.64
2022-08-26T17:03:22.820Z,41.41
2022-08-26T17:05:52.058Z,41.26
2022-08-26T17:08:27.516Z,40.09
2022-08-26T17:11:00.439Z,41.28
2022-08-26T17:13:35.348Z,43.69
2022-08-26T17:16:07.478Z,45.56
2022-08-26T17:18:38.528Z,47.03
2022-08-26T17:21:10.429Z,49.25
2022-08-26T17:23:41.176Z,50.10
2022-08-26T17:26:11.960Z,51.99
2022-08-26T17:28:43.074Z,52.96
2022-08-26T17:31:14.379Z,54.55
2022-08-26T17:33:46.642Z,55.15
2022-08-26T17:36:17.319Z,55.96
2022-08-26T17:38:46.576Z,57.32
2022-08-26T17:41:19.504Z,58.53
2022-08-26T17:43:49.987Z,58.34
2022-08-26T17:46:19.238Z,59.50
2022-08-26T17:48:48.902Z,60.17
2022-08-26T17:51:20.390Z,61.34
2022-08-26T17:53:50.500Z,61.68
2022-08-26T17:56:23.974Z,61.76
2022-08-26T17:58:58.071Z,62.45
2022-08-26T18:01:33.050Z,62.21
2022-08-26T18:04:02.661Z,63.01
2022-08-26T18:06:32.377Z,62.73
2022-08-26T18:09:02.708Z,63.01
2022-08-26T18:11:32.963Z,62.36
2022-08-26T18:14:03.758Z,63.12
2022-08-26T18:16:38.226Z,63.34
2022-08-26T18:19:07.788Z,63.02
2022-08-26T18:21:37.335Z,63.04
2022-08-26T18:24:11.036Z,64.05
2022-08-26T18:26:48.309Z,63.25
2022-08-26T18:29:20.622Z,64.67
2022-08-26T18:31:50.151Z,64.91
2022-08-26T18:34:19.488Z,64.34
2022-08-26T18:36:49.226Z,64.30
2022-08-26T18:39:19.497Z,64.79
2022-08-26T18:41:53.855Z,65.98
2022-08-26T18:44:24.749Z,65.33
2022-08-26T18:46:54.537Z,66.35
2022-08-26T18:49:23.756Z,66.40
2022-08-26T18:51:53.357Z,67.29
2022-08-26T18:54:23.068Z,66.73
2022-08-26T18:56:52.450Z,68.32
2022-08-26T18:59:29.587Z,68.61
2022-08-26T19:02:00.161Z,68.48
2022-08-26T19:04:29.665Z,70.22
2022-08-26T19:06:58.613Z,69.92
2022-08-26T19:09:28.237Z,70.32
2022-08-26T19:11:58.146Z,69.79
2022-08-26T19:14:28.909Z,70.17
2022-08-26T19:17:01.482Z,69.74
2022-08-26T19:19:31.895Z,70.94
2022-08-26T19:22:06.145Z,70.21
2022-08-26T19:24:37.051Z,71.04
2022-08-26T19:27:06.559Z,71.45
2022-08-26T19:29:38.220Z,71.17
2022-08-26T19:32:08.580Z,73.21
2022-08-26T19:34:38.651Z,72.61
2022-08-26T19:37:07.799Z,73.23
2022-08-26T19:39:37.740Z,73.02
2022-08-26T19:42:07.281Z,74.14
2022-08-26T19:44:55.421Z,73.62
2022-08-26T19:47:24.652Z,74.52
2022-08-26T19:49:55.449Z,74.65
2022-08-26T19:52:29.919Z,74.73
2022-08-26T19:55:02.525Z,74.61
2022-08-26T19:57:34.315Z,74.89
2022-08-26T20:00:12.309Z,75.44
2022-08-26T20:02:41.961Z,75.08
2022-08-26T20:05:14.018Z,75.28
2022-08-26T20:07:47.993Z,75.56
2022-08-26T20:10:20.933Z,75.92
2022-08-26T20:12:52.934Z,75.87
2022-08-26T20:15:24.232Z,76.55
2022-08-26T20:17:55.791Z,75.72
2022-08-26T20:20:42.267Z,76.29
2022-08-26T20:23:11.556Z,76.74
2022-08-26T20:25:44.134Z,76.05
2022-08-26T20:28:14.125Z,76.98
2022-08-26T20:30:44.926Z,76.18
2022-08-26T20:33:14.247Z,76.49
2022-08-26T20:35:43.358Z,76.86
2022-08-26T20:38:12.612Z,76.96
2022-08-26T20:40:42.240Z,76.24
2022-08-26T20:43:12.547Z,76.33
2022-08-26T20:45:43.653Z,76.36
2022-08-26T20:48:12.907Z,76.65
2022-08-26T20:50:42.239Z,76.60
2022-08-26T20:53:11.195Z,77.00
2022-08-26T20:55:40.903Z,77.60
2022-08-26T20:58:10.592Z,77.46
2022-08-26T21:00:40.036Z,77.24
2022-08-26T21:03:10.645Z,76.97
2022-08-26T21:05:39.998Z,77.08
2022-08-26T21:08:09.549Z,77.19
2022-08-26T21:10:41.157Z,77.54
2022-08-26T21:13:10.354Z,77.57
2022-08-26T21:15:39.729Z,77.68
2022-08-26T21:18:10.550Z,77.79
2022-08-26T21:20:40.257Z,78.70
2022-08-26T21:23:09.456Z,78.11
2022-08-26T21:25:38.858Z,78.21
2022-08-26T21:28:08.108Z,77.92
2022-08-26T21:30:39.564Z,77.49
2022-08-26T21:33:10.203Z,77.36
2022-08-26T21:35:39.569Z,77.93
2022-08-26T21:38:08.863Z,78.21
2022-08-26T21:40:38.103Z,78.44
2022-08-26T21:43:07.383Z,78.51
2022-08-26T21:45:41.877Z,78.37
2022-08-26T21:48:12.483Z,78.39
2022-08-26T21:50:41.639Z,77.36
2022-08-26T21:53:10.776Z,78.07
2022-08-26T21:55:42.596Z,78.30
2022-08-26T21:58:11.982Z,78.97
2022-08-26T22:00:47.951Z,79.11
2022-08-26T22:03:19.473Z,78.98
2022-08-26T22:05:51.514Z,79.01
2022-08-26T22:08:22.750Z,79.41
2022-08-26T22:10:58.360Z,79.12
2022-08-26T22:13:31.864Z,79.32
2022-08-26T22:16:02.004Z,79.69
2022-08-26T22:18:33.381Z,78.80
2022-08-26T22:21:05.812Z,78.70
2022-08-26T22:23:36.256Z,79.04
2022-08-26T22:26:06.820Z,79.54
2022-08-26T22:28:36.680Z,79.57
2022-08-26T22:31:07.267Z,79.72
2022-08-26T22:33:38.394Z,79.39
2022-08-26T22:36:07.903Z,79.10
2022-08-26T22:38:37.261Z,79.45
2022-08-26T22:41:09.945Z,79.55
2022-08-26T22:43:39.478Z,80.12
2022-08-26T22:46:09.732Z,80.06
2022-08-26T22:48:40.355Z,79.25
2022-08-26T22:51:09.650Z,79.33
2022-08-26T22:53:41.544Z,78.30
2022-08-26T22:56:12.301Z,79.12
2022-08-26T22:58:41.781Z,78.48
2022-08-26T23:01:10.829Z,78.88
2022-08-26T23:03:41.869Z,78.66
2022-08-26T23:06:12.030Z,78.51
2022-08-26T23:08:45.291Z,79.00
2022-08-26T23:11:16.138Z,79.86
2022-08-26T23:13:45.490Z,80.17
2022-08-26T23:16:15.191Z,79.74
2022-08-26T23:18:45.748Z,80.71
2022-08-26T23:21:15.385Z,81.74
2022-08-26T23:23:45.198Z,80.84
2022-08-26T23:26:17.553Z,79.35
2022-08-26T23:28:47.183Z,79.84
2022-08-26T23:31:16.481Z,80.16
2022-08-26T23:34:04.403Z,79.44
2022-08-26T23:36:34.378Z,80.34
2022-08-26T23:39:05.400Z,79.58
2022-08-26T23:41:35.952Z,80.18
2022-08-26T23:44:06.240Z,79.99
2022-08-26T23:46:36.840Z,80.00
2022-08-26T23:49:07.649Z,80.55
2022-08-26T23:51:54.428Z,79.42
2022-08-26T23:54:24.157Z,79.84
2022-08-26T23:56:53.525Z,79.48
2022-08-26T23:59:22.738Z,79.49
